createdAt,value
2023-05-12T00:00:31.757Z,10.09
2023-05-12T00:03:03.795Z,10.11
2023-05-12T00:05:30.769Z,10.14
2023-05-12T00:07:59.624Z,10.13
2023-05-12T00:10:30.002Z,10.10
2023-05-12T00:12:59.038Z,10.11
2023-05-12T00:15:30.637Z,10.12
2023-05-12T00:17:57.226Z,10.16
2023-05-12T00:20:23.870Z,10.20
2023-05-12T00:22:52.629Z,10.16
2023-05-12T00:25:19.223Z,10.18
2023-05-12T00:27:45.844Z,10.21
2023-05-12T00:30:17.239Z,10.19
2023-05-12T00:32:46.350Z,10.16
2023-05-12T00:35:12.997Z,10.14
2023-05-12T00:37:42.712Z,10.14
2023-05-12T00:40:09.711Z,10.08
2023-05-12T00:42:36.533Z,10.12
2023-05-12T00:45:04.690Z,10.07
2023-05-12T00:47:32.351Z,10.06
2023-05-12T00:50:01.214Z,10.04
2023-05-12T00:52:27.964Z,9.98
2023-05-12T00:54:55.156Z,9.79
2023-05-12T00:57:22.857Z,9.83
2023-05-12T00:59:51.869Z,9.90
2023-05-12T01:02:18.466Z,9.91
2023-05-12T01:04:45.134Z,9.88
2023-05-12T01:07:26.606Z,9.92
2023-05-12T01:09:56.640Z,9.89
2023-05-12T01:12:32.399Z,9.88
2023-05-12T01:14:59.477Z,9.81
2023-05-12T01:17:33.342Z,9.83
2023-05-12T01:20:04.887Z,9.82
2023-05-12T01:22:33.766Z,9.87
2023-05-12T01:25:15.307Z,9.87
2023-05-12T01:27:43.217Z,9.80
2023-05-12T01:30:16.589Z,9.88
2023-05-12T01:32:44.213Z,9.84
2023-05-12T01:35:13.140Z,9.80
2023-05-12T01:37:41.948Z,9.73
2023-05-12T01:40:09.256Z,9.79
2023-05-12T01:42:40.042Z,9.78
2023-05-12T01:45:10.082Z,9.78
2023-05-12T01:47:36.659Z,9.75
2023-05-12T01:50:03.430Z,9.80
2023-05-12T01:52:34.858Z,9.80
2023-05-12T01:55:01.463Z,9.79
2023-05-12T01:57:30.309Z,9.78
2023-05-12T01:59:57.002Z,9.76
2023-05-12T02:02:25.801Z,9.83
2023-05-12T02:04:52.358Z,9.84
2023-05-12T02:07:18.920Z,9.79
2023-05-12T02:09:50.940Z,9.79
2023-05-12T02:12:17.721Z,9.84
2023-05-12T02:14:46.513Z,9.87
2023-05-12T02:17:13.203Z,9.85
2023-05-12T02:19:39.748Z,9.76
2023-05-12T02:22:06.364Z,9.64
2023-05-12T02:24:35.439Z,9.57
2023-05-12T02:27:02.371Z,9.68
2023-05-12T02:29:28.893Z,9.76
2023-05-12T02:31:59.724Z,9.76
2023-05-12T02:34:26.353Z,9.78
2023-05-12T02:36:55.399Z,9.76
2023-05-12T02:39:24.191Z,9.72
2023-05-12T02:41:52.821Z,9.77
2023-05-12T02:44:22.549Z,9.74
2023-05-12T02:46:49.116Z,9.73
2023-05-12T02:49:17.949Z,9.69
2023-05-12T02:51:48.551Z,9.75
2023-05-12T02:54:17.671Z,9.74
2023-05-12T02:56:47.361Z,9.79
2023-05-12T02:59:18.789Z,9.65
2023-05-12T03:01:47.638Z,9.66
2023-05-12T03:04:16.756Z,9.50
2023-05-12T03:06:43.360Z,9.47
2023-05-12T03:09:10.124Z,9.39
2023-05-12T03:11:39.108Z,9.45
2023-05-12T03:14:05.828Z,9.47
2023-05-12T03:16:32.381Z,9.46
2023-05-12T03:18:59.035Z,9.53
2023-05-12T03:21:30.136Z,9.63
2023-05-12T03:23:59.176Z,9.55
2023-05-12T03:26:28.208Z,9.60
2023-05-12T03:28:54.796Z,9.61
2023-05-12T03:31:21.633Z,9.62
2023-05-12T03:33:48.181Z,9.55
2023-05-12T03:36:14.695Z,9.61
2023-05-12T03:38:41.233Z,9.56
2023-05-12T03:41:08.478Z,9.65
2023-05-12T03:43:37.483Z,9.69
2023-05-12T03:46:04.300Z,9.70
2023-05-12T03:48:31.123Z,9.65
2023-05-12T03:51:00.407Z,9.61
2023-05-12T03:53:29.637Z,9.68
2023-05-12T03:55:58.431Z,9.69
2023-05-12T03:58:27.221Z,9.61
2023-05-12T04:00:57.095Z,9.77
2023-05-12T04:03:28.340Z,9.83
2023-05-12T04:06:01.114Z,9.80
2023-05-12T04:08:28.401Z,9.79
2023-05-12T04:11:04.938Z,9.81
2023-05-12T04:13:32.914Z,9.74
2023-05-12T04:16:00.090Z,9.67
2023-05-12T04:18:31.985Z,9.74
2023-05-12T04:21:05.673Z,9.77
2023-05-12T04:23:32.376Z,9.67
2023-05-12T04:25:58.923Z,9.63
2023-05-12T04:28:29.063Z,9.52
2023-05-12T04:30:57.865Z,9.66
2023-05-12T04:33:24.577Z,9.67
2023-05-12T04:35:56.102Z,9.55
2023-05-12T04:38:22.757Z,9.65
2023-05-12T04:40:49.308Z,9.60
2023-05-12T04:45:45.470Z,9.72
2023-05-12T04:48:12.027Z,9.79
2023-05-12T04:50:40.971Z,9.88
2023-05-12T04:53:13.780Z,9.97
2023-05-12T04:55:45.799Z,10.12
2023-05-12T04:58:16.150Z,10.21
2023-05-12T05:00:45.337Z,10.22
2023-05-12T05:03:12.141Z,10.05
2023-05-12T05:05:41.013Z,10.00
2023-05-12T05:08:07.765Z,10.00
2023-05-12T05:10:34.380Z,10.08
2023-05-12T05:13:03.165Z,10.00
2023-05-12T05:15:29.875Z,9.96
2023-05-12T05:17:56.625Z,9.95
2023-05-12T05:20:27.842Z,10.00
2023-05-12T05:22:57.713Z,10.01
2023-05-12T05:25:27.947Z,10.02
2023-05-12T05:27:58.170Z,10.07
2023-05-12T05:30:27.299Z,10.11
2023-05-12T05:32:56.175Z,10.09
2023-05-12T05:35:27.670Z,10.10
2023-05-12T05:37:54.769Z,10.04
2023-05-12T05:40:22.005Z,10.05
2023-05-12T05:42:48.889Z,10.22
2023-05-12T05:45:15.706Z,10.18
2023-05-12T05:47:42.368Z,10.21
2023-05-12T05:50:09.365Z,10.28
2023-05-12T05:52:35.904Z,10.33
2023-05-12T05:55:05.024Z,10.14
2023-05-12T05:57:34.072Z,10.21
2023-05-12T06:00:00.606Z,10.32
2023-05-12T06:02:28.040Z,10.21
2023-05-12T06:04:54.655Z,10.27
2023-05-12T06:07:23.744Z,10.49
2023-05-12T06:09:50.322Z,10.43
2023-05-12T06:12:16.911Z,10.64
2023-05-12T06:14:45.834Z,10.71
2023-05-12T06:17:14.730Z,10.67
2023-05-12T06:19:47.839Z,10.92
2023-05-12T06:22:17.192Z,10.75
2023-05-12T06:24:48.321Z,10.81
2023-05-12T06:27:14.951Z,10.92
2023-05-12T06:29:46.305Z,10.72
2023-05-12T06:32:12.879Z,10.83
2023-05-12T06:34:41.671Z,10.84
2023-05-12T06:37:08.187Z,10.96
2023-05-12T06:39:42.015Z,10.90
2023-05-12T06:42:08.666Z,10.91
2023-05-12T06:44:38.477Z,10.94
2023-05-12T06:47:08.618Z,10.91
2023-05-12T06:49:40.480Z,11.15
2023-05-12T06:52:09.573Z,11.02
2023-05-12T06:54:36.167Z,11.18
2023-05-12T06:57:02.729Z,11.33
2023-05-12T06:59:31.834Z,11.32
2023-05-12T07:02:00.931Z,11.22
2023-05-12T07:04:30.000Z,11.23
2023-05-12T07:06:56.804Z,11.22
2023-05-12T07:09:23.373Z,11.47
2023-05-12T07:11:50.132Z,11.42
2023-05-12T07:14:17.717Z,11.37
2023-05-12T07:16:44.495Z,11.58
2023-05-12T07:19:11.067Z,11.67
2023-05-12T07:21:38.037Z,11.79
2023-05-12T07:24:06.958Z,11.79
2023-05-12T07:26:33.674Z,11.95
2023-05-12T07:29:04.048Z,11.92
2023-05-12T07:31:30.908Z,12.07
2023-05-12T07:33:57.589Z,12.17
2023-05-12T07:36:26.741Z,12.17
2023-05-12T07:38:53.296Z,12.15
2023-05-12T07:41:22.057Z,12.21
2023-05-12T07:43:48.660Z,12.29
2023-05-12T07:46:18.261Z,12.15
2023-05-12T07:48:44.940Z,12.26
2023-05-12T07:51:11.590Z,12.38
2023-05-12T07:53:38.194Z,12.50
2023-05-12T07:56:05.671Z,12.38
2023-05-12T07:58:32.308Z,12.16
2023-05-12T08:01:00.352Z,11.90
2023-05-12T08:03:31.816Z,11.84
2023-05-12T08:05:58.588Z,11.93
2023-05-12T08:08:25.176Z,11.88
2023-05-12T08:10:53.948Z,11.80
2023-05-12T08:13:22.778Z,11.72
2023-05-12T08:15:50.084Z,11.68
2023-05-12T08:18:16.673Z,11.71
2023-05-12T08:20:49.370Z,11.79
2023-05-12T08:23:19.033Z,11.74
2023-05-12T08:25:46.314Z,11.98
2023-05-12T08:28:12.986Z,11.96
2023-05-12T08:30:45.567Z,11.88
2023-05-12T08:33:12.721Z,12.13
2023-05-12T08:35:39.548Z,12.04
2023-05-12T08:38:10.960Z,12.22
2023-05-12T08:41:08.556Z,12.73
2023-05-12T08:43:44.004Z,13.00
2023-05-12T08:46:16.140Z,13.25
2023-05-12T08:48:52.536Z,13.63
2023-05-12T08:51:22.072Z,13.91
2023-05-12T08:53:50.166Z,14.34
2023-05-12T08:58:53.424Z,14.50
2023-05-12T09:01:23.162Z,14.89
2023-05-12T09:03:53.680Z,15.58
2023-05-12T09:06:22.921Z,16.42
2023-05-12T09:08:53.958Z,16.26
2023-05-12T09:11:22.048Z,15.69
2023-05-12T09:14:07.425Z,15.53
2023-05-12T09:16:42.307Z,15.31
2023-05-12T09:19:11.091Z,14.51
2023-05-12T09:21:37.905Z,14.77
2023-05-12T09:24:07.831Z,15.04
2023-05-12T09:26:52.900Z,14.58
2023-05-12T09:29:31.942Z,15.58
2023-05-12T09:32:04.988Z,15.38
2023-05-12T09:34:35.663Z,15.04
2023-05-12T09:37:05.288Z,15.75
2023-05-12T09:39:32.284Z,15.01
2023-05-12T09:42:01.543Z,14.33
2023-05-12T09:44:33.049Z,14.23
2023-05-12T09:47:10.205Z,14.25
2023-05-12T09:49:37.207Z,14.65
2023-05-12T09:52:09.287Z,15.26
2023-05-12T09:54:39.706Z,15.96
2023-05-12T09:57:09.115Z,16.82
2023-05-12T09:59:40.989Z,16.35
2023-05-12T10:02:11.846Z,15.22
2023-05-12T10:04:50.440Z,14.79
2023-05-12T10:07:24.004Z,14.59
2023-05-12T10:09:59.527Z,14.74
2023-05-12T10:12:26.096Z,14.97
2023-05-12T10:14:56.309Z,14.91
2023-05-12T10:17:26.679Z,14.88
2023-05-12T10:19:54.167Z,14.64
2023-05-12T10:22:21.861Z,14.83
2023-05-12T10:24:51.708Z,15.42
2023-05-12T10:27:18.933Z,15.26
2023-05-12T10:29:48.160Z,15.14
2023-05-12T10:32:15.759Z,15.31
2023-05-12T10:34:42.526Z,15.45
2023-05-12T10:37:11.497Z,16.05
2023-05-12T10:39:54.960Z,16.12
2023-05-12T10:42:26.461Z,16.02
2023-05-12T10:44:58.918Z,16.22
2023-05-12T10:47:39.775Z,15.89
2023-05-12T10:50:13.663Z,16.69
2023-05-12T10:53:03.528Z,16.32
2023-05-12T10:55:35.400Z,16.83
2023-05-12T10:58:13.138Z,17.24
2023-05-12T11:00:52.663Z,16.91
2023-05-12T11:03:25.726Z,16.62
2023-05-12T11:06:07.163Z,16.53
2023-05-12T11:08:37.853Z,16.84
2023-05-12T11:11:04.706Z,17.05
2023-05-12T11:13:33.526Z,17.05
2023-05-12T11:16:00.201Z,17.13
2023-05-12T11:18:29.206Z,17.49
2023-05-12T11:20:58.058Z,16.68
2023-05-12T11:23:33.932Z,17.81
2023-05-12T11:26:01.039Z,17.34
2023-05-12T11:28:27.862Z,16.82
2023-05-12T11:30:55.499Z,16.95
2023-05-12T11:33:23.232Z,17.76
2023-05-12T11:35:50.326Z,17.71
2023-05-12T11:38:19.629Z,17.49
2023-05-12T11:40:48.427Z,17.45
2023-05-12T11:43:20.734Z,18.10
2023-05-12T11:45:47.634Z,17.37
2023-05-12T11:48:14.858Z,17.93
2023-05-12T11:50:46.756Z,17.36
2023-05-12T11:53:17.535Z,17.69
2023-05-12T11:55:54.841Z,17.43
2023-05-12T11:58:30.736Z,17.29
2023-05-12T12:01:08.365Z,17.32
2023-05-12T12:03:47.673Z,18.01
2023-05-12T12:06:14.761Z,17.47
2023-05-12T12:09:02.164Z,16.93
2023-05-12T12:11:30.624Z,17.05
2023-05-12T12:14:00.968Z,16.93
2023-05-12T12:16:29.453Z,16.81
2023-05-12T12:18:58.605Z,17.00
2023-05-12T12:21:27.823Z,17.47
2023-05-12T12:23:56.753Z,17.63
2023-05-12T12:26:23.339Z,17.24
2023-05-12T12:28:50.061Z,17.25
2023-05-12T12:31:18.783Z,17.85
2023-05-12T12:33:47.706Z,17.89
2023-05-12T12:36:17.551Z,17.36
2023-05-12T12:38:44.772Z,17.44
2023-05-12T12:41:11.395Z,16.99
2023-05-12T12:43:40.171Z,17.14
2023-05-12T12:46:06.740Z,16.99
2023-05-12T12:48:35.659Z,17.35
2023-05-12T12:51:02.225Z,16.94
2023-05-12T12:53:30.999Z,17.19
2023-05-12T12:55:57.555Z,17.22
2023-05-12T12:58:24.041Z,17.42
2023-05-12T13:00:55.537Z,17.58
2023-05-12T13:03:24.608Z,17.49
2023-05-12T13:05:51.251Z,17.57
2023-05-12T13:08:17.810Z,17.81
2023-05-12T13:10:44.416Z,18.24
2023-05-12T13:13:12.093Z,18.08
2023-05-12T13:15:39.380Z,17.95
2023-05-12T13:18:06.010Z,18.01
2023-05-12T13:20:36.352Z,17.83
2023-05-12T13:23:07.795Z,18.44
2023-05-12T13:25:34.374Z,18.34
2023-05-12T13:28:03.400Z,18.80
2023-05-12T13:30:30.003Z,18.76
2023-05-12T13:32:56.706Z,19.28
2023-05-12T13:35:25.611Z,19.57
2023-05-12T13:37:52.113Z,19.91
2023-05-12T13:40:21.098Z,19.26
2023-05-12T13:42:47.923Z,19.22
2023-05-12T13:45:19.462Z,19.34
2023-05-12T13:47:51.084Z,19.03
2023-05-12T13:50:22.426Z,17.94
2023-05-12T13:52:51.538Z,17.88
2023-05-12T13:55:21.583Z,17.56
2023-05-12T13:57:53.522Z,17.03
2023-05-12T14:00:20.512Z,16.92
2023-05-12T14:02:47.220Z,16.72
2023-05-12T14:05:14.028Z,16.68
2023-05-12T14:07:42.916Z,16.47
2023-05-12T14:10:10.399Z,16.45
2023-05-12T14:12:37.137Z,16.67
2023-05-12T14:15:21.876Z,16.64
2023-05-12T14:17:52.869Z,16.39
2023-05-12T14:20:19.476Z,16.75
2023-05-12T14:22:46.224Z,16.24
2023-05-12T14:25:17.480Z,16.25
2023-05-12T14:27:45.328Z,16.05
2023-05-12T14:30:14.589Z,16.13
2023-05-12T14:32:43.698Z,16.42
2023-05-12T14:35:15.025Z,16.31
2023-05-12T14:37:41.583Z,16.42
2023-05-12T14:40:12.146Z,16.62
2023-05-12T14:42:39.260Z,17.24
2023-05-12T14:45:06.652Z,17.61
2023-05-12T14:47:35.515Z,18.30
2023-05-12T14:50:02.273Z,17.90
2023-05-12T14:52:33.899Z,17.80
2023-05-12T14:55:00.441Z,17.72
2023-05-12T14:57:29.363Z,17.59
2023-05-12T15:00:00.794Z,17.76
2023-05-12T15:02:33.529Z,17.35
2023-05-12T15:05:04.999Z,17.56
2023-05-12T15:07:31.717Z,17.26
2023-05-12T15:10:00.864Z,17.66
2023-05-12T15:12:29.821Z,17.26
2023-05-12T15:14:56.519Z,17.02
2023-05-12T15:17:28.218Z,17.37
2023-05-12T15:19:55.872Z,17.70
2023-05-12T15:22:22.524Z,17.88
2023-05-12T15:24:49.155Z,16.98
2023-05-12T15:27:15.746Z,17.33
2023-05-12T15:29:45.364Z,17.67
2023-05-12T15:32:14.557Z,17.66
2023-05-12T15:34:41.159Z,17.23
2023-05-12T15:37:12.439Z,17.59
2023-05-12T15:39:43.979Z,17.64
2023-05-12T15:42:12.410Z,17.44
2023-05-12T15:44:39.221Z,17.17
2023-05-12T15:47:06.140Z,16.72
2023-05-12T15:49:32.773Z,16.59
2023-05-12T15:52:02.445Z,16.51
2023-05-12T15:54:30.450Z,16.82
2023-05-12T15:56:57.002Z,16.67
2023-05-12T15:59:23.591Z,16.67
2023-05-12T16:01:53.262Z,17.44
2023-05-12T16:04:20.064Z,17.37
2023-05-12T16:06:48.958Z,17.54
2023-05-12T16:09:15.756Z,17.29
2023-05-12T16:11:42.701Z,17.37
2023-05-12T16:14:11.750Z,17.19
2023-05-12T16:16:43.581Z,17.16
2023-05-12T16:19:10.230Z,17.37
2023-05-12T16:21:42.500Z,17.66
2023-05-12T16:24:15.445Z,17.38
2023-05-12T16:26:42.147Z,17.37
2023-05-12T16:29:11.204Z,17.06
2023-05-12T16:31:37.957Z,16.79
2023-05-12T16:34:04.661Z,16.59
2023-05-12T16:36:33.444Z,16.33
2023-05-12T16:39:02.967Z,16.30
2023-05-12T16:41:31.931Z,16.31
2023-05-12T16:43:58.578Z,16.12
2023-05-12T16:46:25.193Z,16.16
2023-05-12T16:48:54.560Z,15.93
2023-05-12T16:51:24.483Z,15.84
2023-05-12T16:53:53.283Z,16.07
2023-05-12T16:56:20.004Z,15.96
2023-05-12T16:58:48.837Z,16.25
2023-05-12T17:01:15.443Z,16.39
2023-05-12T17:03:42.108Z,16.46
2023-05-12T17:06:11.165Z,16.30
2023-05-12T17:08:40.073Z,16.73
2023-05-12T17:11:06.691Z,16.87
2023-05-12T17:13:36.736Z,16.79
2023-05-12T17:16:04.376Z,17.09
2023-05-12T17:18:31.480Z,17.10
2023-05-12T17:20:58.939Z,17.15
2023-05-12T17:23:28.290Z,17.12
2023-05-12T17:25:54.860Z,16.96
2023-05-12T17:28:22.127Z,16.93
2023-05-12T17:30:50.094Z,17.13
2023-05-12T17:33:17.308Z,16.67
2023-05-12T17:35:48.929Z,16.78
2023-05-12T17:38:20.884Z,16.54
2023-05-12T17:40:47.448Z,16.51
2023-05-12T17:43:15.776Z,16.59
2023-05-12T17:45:44.789Z,16.07
2023-05-12T17:48:11.466Z,15.36
2023-05-12T17:50:40.999Z,14.65
2023-05-12T17:53:07.589Z,14.69
2023-05-12T17:55:36.395Z,14.94
2023-05-12T17:58:05.199Z,14.92
2023-05-12T18:00:31.813Z,14.77
2023-05-12T18:03:03.399Z,14.84
2023-05-12T18:05:30.182Z,14.87
2023-05-12T18:07:58.826Z,14.75
2023-05-12T18:10:27.617Z,14.78
2023-05-12T18:12:56.454Z,14.50
2023-05-12T18:15:24.500Z,14.53
2023-05-12T18:17:53.356Z,14.49
2023-05-12T18:20:20.165Z,14.31
2023-05-12T18:22:50.797Z,14.26
2023-05-12T18:25:19.648Z,14.18
2023-05-12T18:27:48.974Z,14.22
2023-05-12T18:30:15.748Z,14.15
2023-05-12T18:32:42.465Z,13.87
2023-05-12T18:35:09.405Z,13.96
2023-05-12T18:37:38.685Z,13.80
2023-05-12T18:40:06.940Z,13.82
2023-05-12T18:42:34.415Z,13.86
2023-05-12T18:45:00.988Z,13.81
2023-05-12T18:47:27.681Z,13.82
2023-05-12T18:49:54.314Z,13.52
2023-05-12T18:52:23.338Z,13.32
2023-05-12T18:54:50.058Z,13.59
2023-05-12T18:57:19.396Z,13.62
2023-05-12T18:59:46.161Z,13.60
2023-05-12T19:02:15.216Z,13.59
2023-05-12T19:04:44.375Z,13.53
2023-05-12T19:07:15.205Z,13.49
2023-05-12T19:09:42.750Z,13.42
2023-05-12T19:12:11.906Z,13.37
2023-05-12T19:14:44.622Z,13.22
2023-05-12T19:17:13.468Z,13.28
2023-05-12T19:19:40.143Z,13.10
2023-05-12T19:22:06.773Z,13.28
2023-05-12T19:24:34.230Z,12.98
2023-05-12T19:27:01.376Z,13.06
2023-05-12T19:29:30.648Z,13.04
2023-05-12T19:31:57.390Z,12.98
2023-05-12T19:34:29.607Z,13.05
2023-05-12T19:37:00.824Z,13.04
2023-05-12T19:39:28.196Z,13.02
2023-05-12T19:41:59.202Z,12.96
2023-05-12T19:44:29.945Z,12.94
2023-05-12T19:47:04.502Z,12.88
2023-05-12T19:49:35.380Z,12.91
2023-05-12T19:52:03.566Z,12.99
2023-05-12T19:54:30.360Z,12.87
2023-05-12T19:56:56.995Z,12.92
2023-05-12T19:59:24.506Z,12.88
2023-05-12T20:01:55.722Z,12.87
2023-05-12T20:04:23.391Z,12.85
2023-05-12T20:06:50.529Z,12.76
2023-05-12T20:09:20.613Z,12.65
2023-05-12T20:11:47.140Z,12.81
2023-05-12T20:14:13.990Z,12.65
2023-05-12T20:16:43.031Z,12.75
2023-05-12T20:19:09.747Z,12.69
2023-05-12T20:21:36.569Z,12.74
2023-05-12T20:24:05.562Z,12.71
2023-05-12T20:26:32.123Z,12.67
2023-05-12T20:29:01.724Z,12.76
2023-05-12T20:31:31.394Z,12.69
2023-05-12T20:34:00.250Z,12.67
2023-05-12T20:36:29.904Z,12.61
2023-05-12T20:38:58.796Z,12.54
2023-05-12T20:41:25.368Z,12.55
2023-05-12T20:43:52.003Z,12.38
2023-05-12T20:46:21.091Z,12.36
2023-05-12T20:48:47.726Z,12.40
2023-05-12T20:51:14.704Z,12.37
2023-05-12T20:53:43.439Z,12.52
2023-05-12T20:56:14.808Z,12.54
2023-05-12T20:58:44.458Z,12.51
2023-05-12T21:01:11.177Z,12.43
2023-05-12T21:03:37.968Z,12.33
2023-05-12T21:06:05.525Z,12.31
2023-05-12T21:08:36.813Z,12.29
2023-05-12T21:11:05.636Z,12.25
2023-05-12T21:13:32.185Z,12.17
2023-05-12T21:15:58.734Z,12.21
2023-05-12T21:18:28.061Z,12.16
2023-05-12T21:20:59.160Z,12.12
2023-05-12T21:23:28.080Z,12.23
2023-05-12T21:25:54.823Z,12.20
2023-05-12T21:28:22.065Z,12.10
2023-05-12T21:30:51.133Z,12.00
2023-05-12T21:33:17.682Z,12.03
2023-05-12T21:35:44.264Z,12.00
2023-05-12T21:38:15.608Z,11.96
2023-05-12T21:40:48.951Z,11.87
2023-05-12T21:43:20.183Z,11.87
2023-05-12T21:45:49.013Z,11.91
2023-05-12T21:48:15.590Z,11.87
2023-05-12T21:50:42.181Z,11.92
2023-05-12T21:53:08.744Z,11.81
2023-05-12T21:55:37.439Z,11.72
2023-05-12T21:58:06.272Z,11.62
2023-05-12T22:00:35.067Z,11.71
2023-05-12T22:03:01.742Z,11.65
2023-05-12T22:05:28.408Z,11.58
2023-05-12T22:07:57.364Z,11.41
2023-05-12T22:10:23.973Z,11.40
2023-05-12T22:12:55.449Z,11.47
2023-05-12T22:15:22.490Z,11.42
2023-05-12T22:17:49.620Z,11.38
2023-05-12T22:20:19.142Z,11.20
2023-05-12T22:22:48.257Z,11.29
2023-05-12T22:25:17.078Z,11.01
2023-05-12T22:27:43.903Z,11.27
2023-05-12T22:30:13.184Z,11.24
2023-05-12T22:32:39.807Z,11.24
2023-05-12T22:35:09.146Z,11.23
2023-05-12T22:37:36.012Z,11.15
2023-05-12T22:40:02.596Z,11.15
2023-05-12T22:42:29.233Z,10.97
2023-05-12T22:44:57.400Z,10.96
2023-05-12T22:47:24.183Z,10.82
2023-05-12T22:49:50.716Z,10.87
2023-05-12T22:52:21.909Z,10.95
2023-05-12T22:54:52.449Z,10.87
2023-05-12T22:57:19.379Z,10.94
2023-05-12T22:59:45.916Z,10.89
2023-05-12T23:02:14.953Z,10.84
2023-05-12T23:04:44.061Z,10.90
2023-05-12T23:07:10.858Z,10.83
2023-05-12T23:09:39.914Z,10.87
2023-05-12T23:12:08.877Z,10.77
2023-05-12T23:14:37.778Z,10.75
2023-05-12T23:17:04.376Z,10.66
2023-05-12T23:19:30.987Z,10.76
2023-05-12T23:21:59.720Z,10.68
2023-05-12T23:24:28.492Z,10.69
2023-05-12T23:26:57.509Z,10.75
2023-05-12T23:29:24.116Z,10.60
2023-05-12T23:31:53.459Z,10.69
2023-05-12T23:34:20.068Z,10.69
2023-05-12T23:36:48.816Z,10.58
2023-05-12T23:39:17.711Z,10.57
2023-05-12T23:41:45.615Z,10.73
2023-05-12T23:44:12.798Z,10.69
2023-05-12T23:46:39.555Z,10.70
2023-05-12T23:49:09.454Z,10.76
2023-05-12T23:51:36.490Z,10.66
2023-05-12T23:54:03.045Z,10.69
2023-05-12T23:56:32.062Z,10.77
2023-05-12T23:59:02.173Z,10.82
